sensor_id;sensor_type;location;lat;lon;timestamp;P1;durP1;ratioP1;P2;durP2;ratioP2
27666;SDS011;15074;50.940;5.282;2023-10-08T00:00:46;6.40;;;3.85;;
27666;SDS011;15074;50.940;5.282;2023-10-08T00:03:21;6.97;;;3.33;;
27666;SDS011;15074;50.940;5.282;2023-10-08T00:05:47;6.63;;;3.90;;
27666;SDS011;15074;50.940;5.282;2023-10-08T00:08:16;5.10;;;3.83;;
27666;SDS011;15074;50.940;5.282;2023-10-08T00:10:43;5.65;;;3.40;;
27666;SDS011;15074;50.940;5.282;2023-10-08T00:13:10;4.57;;;3.13;;
27666;SDS011;15074;50.940;5.282;2023-10-08T00:15:40;5.10;;;3.75;;
27666;SDS011;15074;50.940;5.282;2023-10-08T00:18:15;5.35;;;3.60;;
27666;SDS011;15074;50.940;5.282;2023-10-08T00:20:41;5.35;;;3.63;;
27666;SDS011;15074;50.940;5.282;2023-10-08T00:23:32;4.68;;;3.85;;
27666;SDS011;15074;50.940;5.282;2023-10-08T00:26:00;6.72;;;3.72;;
27666;SDS011;15074;50.940;5.282;2023-10-08T00:28:29;4.68;;;3.55;;
27666;SDS011;15074;50.940;5.282;2023-10-08T00:30:56;6.03;;;3.60;;
27666;SDS011;15074;50.940;5.282;2023-10-08T00:33:22;7.20;;;3.70;;
27666;SDS011;15074;50.940;5.282;2023-10-08T00:35:49;5.07;;;3.70;;
27666;SDS011;15074;50.940;5.282;2023-10-08T00:38:15;4.28;;;3.13;;
27666;SDS011;15074;50.940;5.282;2023-10-08T00:40:45;5.72;;;3.53;;
27666;SDS011;15074;50.940;5.282;2023-10-08T00:43:31;5.32;;;3.17;;
27666;SDS011;15074;50.940;5.282;2023-10-08T00:46:01;4.32;;;3.00;;
27666;SDS011;15074;50.940;5.282;2023-10-08T00:48:28;6.78;;;3.05;;
27666;SDS011;15074;50.940;5.282;2023-10-08T00:51:00;4.07;;;3.08;;
27666;SDS011;15074;50.940;5.282;2023-10-08T00:54:01;5.35;;;3.35;;
27666;SDS011;15074;50.940;5.282;2023-10-08T00:56:32;5.35;;;2.80;;
27666;SDS011;15074;50.940;5.282;2023-10-08T00:59:11;5.40;;;3.05;;
27666;SDS011;15074;50.940;5.282;2023-10-08T01:01:43;4.75;;;3.00;;
27666;SDS011;15074;50.940;5.282;2023-10-08T01:04:20;3.97;;;3.03;;
27666;SDS011;15074;50.940;5.282;2023-10-08T01:07:02;4.60;;;2.88;;
27666;SDS011;15074;50.940;5.282;2023-10-08T01:09:37;4.88;;;2.75;;
27666;SDS011;15074;50.940;5.282;2023-10-08T01:15:09;4.45;;;3.03;;
27666;SDS011;15074;50.940;5.282;2023-10-08T01:17:53;4.30;;;2.72;;
27666;SDS011;15074;50.940;5.282;2023-10-08T01:20:28;5.10;;;3.00;;
27666;SDS011;15074;50.940;5.282;2023-10-08T01:23:09;5.72;;;3.22;;
27666;SDS011;15074;50.940;5.282;2023-10-08T01:25:39;5.93;;;2.80;;
27666;SDS011;15074;50.940;5.282;2023-10-08T01:28:06;4.45;;;2.88;;
27666;SDS011;15074;50.940;5.282;2023-10-08T01:30:51;4.57;;;2.47;;
27666;SDS011;15074;50.940;5.282;2023-10-08T01:33:19;5.95;;;2.85;;
27666;SDS011;15074;50.940;5.282;2023-10-08T01:35:47;7.20;;;2.90;;
27666;SDS011;15074;50.940;5.282;2023-10-08T01:38:16;4.05;;;2.92;;
27666;SDS011;15074;50.940;5.282;2023-10-08T01:40:48;5.80;;;3.75;;
27666;SDS011;15074;50.940;5.282;2023-10-08T01:43:16;6.32;;;3.03;;
27666;SDS011;15074;50.940;5.282;2023-10-08T01:45:43;4.93;;;2.67;;
27666;SDS011;15074;50.940;5.282;2023-10-08T01:48:13;5.43;;;3.22;;
27666;SDS011;15074;50.940;5.282;2023-10-08T01:50:55;7.05;;;3.17;;
27666;SDS011;15074;50.940;5.282;2023-10-08T01:53:26;4.57;;;2.78;;
27666;SDS011;15074;50.940;5.282;2023-10-08T01:55:52;5.53;;;3.33;;
27666;SDS011;15074;50.940;5.282;2023-10-08T01:58:19;4.75;;;3.00;;
27666;SDS011;15074;50.940;5.282;2023-10-08T02:00:45;3.85;;;2.97;;
27666;SDS011;15074;50.940;5.282;2023-10-08T02:03:12;5.22;;;3.28;;
27666;SDS011;15074;50.940;5.282;2023-10-08T02:05:40;5.30;;;3.13;;
27666;SDS011;15074;50.940;5.282;2023-10-08T02:08:07;9.65;;;3.70;;
27666;SDS011;15074;50.940;5.282;2023-10-08T02:10:33;4.80;;;3.25;;
27666;SDS011;15074;50.940;5.282;2023-10-08T02:13:00;3.53;;;2.70;;
27666;SDS011;15074;50.940;5.282;2023-10-08T02:15:26;5.68;;;3.42;;
27666;SDS011;15074;50.940;5.282;2023-10-08T02:17:52;3.60;;;2.60;;
27666;SDS011;15074;50.940;5.282;2023-10-08T02:20:20;4.70;;;2.80;;
27666;SDS011;15074;50.940;5.282;2023-10-08T02:22:47;5.07;;;2.53;;
27666;SDS011;15074;50.940;5.282;2023-10-08T02:25:14;4.63;;;3.40;;
27666;SDS011;15074;50.940;5.282;2023-10-08T02:27:40;5.43;;;3.13;;
27666;SDS011;15074;50.940;5.282;2023-10-08T02:30:06;4.80;;;3.28;;
27666;SDS011;15074;50.940;5.282;2023-10-08T02:32:35;5.72;;;3.00;;
27666;SDS011;15074;50.940;5.282;2023-10-08T02:35:02;7.07;;;3.67;;
27666;SDS011;15074;50.940;5.282;2023-10-08T02:37:28;4.10;;;3.22;;
27666;SDS011;15074;50.940;5.282;2023-10-08T02:39:53;4.80;;;2.78;;
27666;SDS011;15074;50.940;5.282;2023-10-08T02:42:19;4.72;;;2.88;;
27666;SDS011;15074;50.940;5.282;2023-10-08T02:44:47;4.60;;;3.17;;
27666;SDS011;15074;50.940;5.282;2023-10-08T02:47:13;4.53;;;2.53;;
27666;SDS011;15074;50.940;5.282;2023-10-08T02:49:43;6.00;;;3.53;;
27666;SDS011;15074;50.940;5.282;2023-10-08T02:52:09;3.50;;;2.72;;
27666;SDS011;15074;50.940;5.282;2023-10-08T02:54:36;3.53;;;2.50;;
27666;SDS011;15074;50.940;5.282;2023-10-08T02:57:02;3.97;;;2.78;;
27666;SDS011;15074;50.940;5.282;2023-10-08T02:59:29;4.07;;;2.75;;
27666;SDS011;15074;50.940;5.282;2023-10-08T03:02:12;5.43;;;2.88;;
27666;SDS011;15074;50.940;5.282;2023-10-08T03:04:43;4.50;;;3.25;;
27666;SDS011;15074;50.940;5.282;2023-10-08T03:07:19;5.03;;;2.90;;
27666;SDS011;15074;50.940;5.282;2023-10-08T03:09:56;4.45;;;2.75;;
27666;SDS011;15074;50.940;5.282;2023-10-08T03:12:30;5.28;;;2.72;;
27666;SDS011;15074;50.940;5.282;2023-10-08T03:15:04;4.75;;;3.20;;
27666;SDS011;15074;50.940;5.282;2023-10-08T03:18:00;4.63;;;2.63;;
27666;SDS011;15074;50.940;5.282;2023-10-08T03:20:35;5.00;;;2.78;;
27666;SDS011;15074;50.940;5.282;2023-10-08T03:23:11;4.85;;;3.38;;
27666;SDS011;15074;50.940;5.282;2023-10-08T03:28:25;4.43;;;2.60;;
27666;SDS011;15074;50.940;5.282;2023-10-08T03:30:53;4.45;;;2.92;;
27666;SDS011;15074;50.940;5.282;2023-10-08T03:33:37;4.75;;;3.72;;
27666;SDS011;15074;50.940;5.282;2023-10-08T03:36:04;9.00;;;3.75;;
27666;SDS011;15074;50.940;5.282;2023-10-08T03:38:46;7.07;;;3.05;;
27666;SDS011;15074;50.940;5.282;2023-10-08T03:41:24;3.60;;;2.83;;
27666;SDS011;15074;50.940;5.282;2023-10-08T03:43:55;4.70;;;2.90;;
27666;SDS011;15074;50.940;5.282;2023-10-08T03:46:27;5.40;;;3.53;;
27666;SDS011;15074;50.940;5.282;2023-10-08T03:48:53;4.70;;;3.13;;
27666;SDS011;15074;50.940;5.282;2023-10-08T03:51:22;7.43;;;2.80;;
27666;SDS011;15074;50.940;5.282;2023-10-08T03:53:52;4.13;;;2.75;;
27666;SDS011;15074;50.940;5.282;2023-10-08T03:56:27;4.65;;;3.05;;
27666;SDS011;15074;50.940;5.282;2023-10-08T03:58:57;6.90;;;3.10;;
27666;SDS011;15074;50.940;5.282;2023-10-08T04:01:28;4.07;;;2.70;;
27666;SDS011;15074;50.940;5.282;2023-10-08T04:03:58;5.43;;;2.58;;
27666;SDS011;15074;50.940;5.282;2023-10-08T04:06:24;5.82;;;3.08;;
27666;SDS011;15074;50.940;5.282;2023-10-08T04:08:56;5.15;;;3.50;;
27666;SDS011;15074;50.940;5.282;2023-10-08T04:11:34;5.40;;;2.88;;
27666;SDS011;15074;50.940;5.282;2023-10-08T04:14:04;5.30;;;3.65;;
27666;SDS011;15074;50.940;5.282;2023-10-08T04:16:31;5.57;;;3.13;;
27666;SDS011;15074;50.940;5.282;2023-10-08T04:19:01;6.63;;;3.13;;
27666;SDS011;15074;50.940;5.282;2023-10-08T04:21:28;7.70;;;3.13;;
27666;SDS011;15074;50.940;5.282;2023-10-08T04:23:55;5.38;;;3.42;;
27666;SDS011;15074;50.940;5.282;2023-10-08T04:26:22;7.20;;;3.20;;
27666;SDS011;15074;50.940;5.282;2023-10-08T04:28:55;3.95;;;3.10;;
27666;SDS011;15074;50.940;5.282;2023-10-08T04:31:27;5.38;;;2.80;;
27666;SDS011;15074;50.940;5.282;2023-10-08T04:34:08;6.75;;;2.60;;
27666;SDS011;15074;50.940;5.282;2023-10-08T04:36:43;5.20;;;2.97;;
27666;SDS011;15074;50.940;5.282;2023-10-08T04:39:14;3.33;;;2.42;;
27666;SDS011;15074;50.940;5.282;2023-10-08T04:41:46;5.85;;;3.20;;
27666;SDS011;15074;50.940;5.282;2023-10-08T04:44:17;5.13;;;3.13;;
27666;SDS011;15074;50.940;5.282;2023-10-08T04:46:43;5.25;;;3.50;;
27666;SDS011;15074;50.940;5.282;2023-10-08T04:49:13;5.93;;;3.13;;
27666;SDS011;15074;50.940;5.282;2023-10-08T04:51:52;9.48;;;3.20;;
27666;SDS011;15074;50.940;5.282;2023-10-08T04:54:27;9.30;;;3.83;;
27666;SDS011;15074;50.940;5.282;2023-10-08T04:56:57;4.28;;;2.75;;
27666;SDS011;15074;50.940;5.282;2023-10-08T04:59:27;6.68;;;3.67;;
27666;SDS011;15074;50.940;5.282;2023-10-08T05:02:02;6.53;;;3.47;;
27666;SDS011;15074;50.940;5.282;2023-10-08T05:04:48;4.63;;;3.75;;
27666;SDS011;15074;50.940;5.282;2023-10-08T05:07:32;4.95;;;2.90;;
27666;SDS011;15074;50.940;5.282;2023-10-08T05:10:09;4.70;;;3.25;;
27666;SDS011;15074;50.940;5.282;2023-10-08T05:12:36;7.03;;;4.03;;
27666;SDS011;15074;50.940;5.282;2023-10-08T05:15:20;5.80;;;3.10;;
27666;SDS011;15074;50.940;5.282;2023-10-08T05:17:46;4.57;;;3.53;;
27666;SDS011;15074;50.940;5.282;2023-10-08T05:20:16;10.88;;;3.90;;
27666;SDS011;15074;50.940;5.282;2023-10-08T05:22:55;6.80;;;4.13;;
27666;SDS011;15074;50.940;5.282;2023-10-08T05:25:31;6.20;;;3.35;;
27666;SDS011;15074;50.940;5.282;2023-10-08T05:28:22;7.32;;;3.90;;
27666;SDS011;15074;50.940;5.282;2023-10-08T05:30:51;5.70;;;3.75;;
27666;SDS011;15074;50.940;5.282;2023-10-08T05:33:36;4.95;;;3.63;;
27666;SDS011;15074;50.940;5.282;2023-10-08T05:36:34;5.30;;;4.03;;
27666;SDS011;15074;50.940;5.282;2023-10-08T05:39:15;6.93;;;4.28;;
27666;SDS011;15074;50.940;5.282;2023-10-08T05:41:54;6.65;;;4.10;;
27666;SDS011;15074;50.940;5.282;2023-10-08T05:44:41;5.95;;;3.42;;
27666;SDS011;15074;50.940;5.282;2023-10-08T05:47:28;5.55;;;3.67;;
27666;SDS011;15074;50.940;5.282;2023-10-08T05:52:41;5.70;;;3.67;;
27666;SDS011;15074;50.940;5.282;2023-10-08T05:55:18;6.55;;;4.82;;
27666;SDS011;15074;50.940;5.282;2023-10-08T05:57:50;6.57;;;4.38;;
27666;SDS011;15074;50.940;5.282;2023-10-08T06:00:35;5.10;;;4.18;;
27666;SDS011;15074;50.940;5.282;2023-10-08T06:03:01;4.53;;;4.10;;
27666;SDS011;15074;50.940;5.282;2023-10-08T06:05:35;5.72;;;3.95;;
27666;SDS011;15074;50.940;5.282;2023-10-08T06:08:08;6.05;;;4.13;;
27666;SDS011;15074;50.940;5.282;2023-10-08T06:10:39;7.18;;;3.58;;
27666;SDS011;15074;50.940;5.282;2023-10-08T06:13:12;6.88;;;4.22;;
27666;SDS011;15074;50.940;5.282;2023-10-08T06:15:45;8.25;;;3.90;;
27666;SDS011;15074;50.940;5.282;2023-10-08T06:18:30;6.70;;;3.47;;
27666;SDS011;15074;50.940;5.282;2023-10-08T06:21:03;6.30;;;4.28;;
27666;SDS011;15074;50.940;5.282;2023-10-08T06:23:37;7.15;;;4.03;;
27666;SDS011;15074;50.940;5.282;2023-10-08T06:26:07;8.88;;;3.80;;
27666;SDS011;15074;50.940;5.282;2023-10-08T06:28:35;12.65;;;4.03;;
27666;SDS011;15074;50.940;5.282;2023-10-08T06:31:03;9.07;;;3.63;;
27666;SDS011;15074;50.940;5.282;2023-10-08T06:33:36;5.78;;;3.90;;
27666;SDS011;15074;50.940;5.282;2023-10-08T06:36:02;9.60;;;4.35;;
27666;SDS011;15074;50.940;5.282;2023-10-08T06:38:41;11.23;;;4.32;;
27666;SDS011;15074;50.940;5.282;2023-10-08T06:41:13;9.00;;;4.13;;
27666;SDS011;15074;50.940;5.282;2023-10-08T06:43:43;8.23;;;3.30;;
27666;SDS011;15074;50.940;5.282;2023-10-08T06:46:15;6.18;;;3.45;;
27666;SDS011;15074;50.940;5.282;2023-10-08T06:48:44;6.78;;;3.42;;
27666;SDS011;15074;50.940;5.282;2023-10-08T06:51:11;5.20;;;3.63;;
27666;SDS011;15074;50.940;5.282;2023-10-08T06:53:43;8.38;;;3.55;;
27666;SDS011;15074;50.940;5.282;2023-10-08T06:56:13;6.30;;;3.53;;
27666;SDS011;15074;50.940;5.282;2023-10-08T06:58:40;8.32;;;3.35;;
27666;SDS011;15074;50.940;5.282;2023-10-08T07:01:17;5.97;;;3.90;;
27666;SDS011;15074;50.940;5.282;2023-10-08T07:03:47;19.27;;;4.22;;
27666;SDS011;15074;50.940;5.282;2023-10-08T07:06:17;7.63;;;3.90;;
27666;SDS011;15074;50.940;5.282;2023-10-08T07:08:56;7.72;;;3.83;;
27666;SDS011;15074;50.940;5.282;2023-10-08T07:11:24;6.30;;;3.78;;
27666;SDS011;15074;50.940;5.282;2023-10-08T07:13:52;6.55;;;3.53;;
27666;SDS011;15074;50.940;5.282;2023-10-08T07:16:18;8.48;;;4.07;;
27666;SDS011;15074;50.940;5.282;2023-10-08T07:21:18;6.95;;;3.90;;
27666;SDS011;15074;50.940;5.282;2023-10-08T07:23:49;7.55;;;4.00;;
27666;SDS011;15074;50.940;5.282;2023-10-08T07:26:26;9.48;;;4.20;;
27666;SDS011;15074;50.940;5.282;2023-10-08T07:29:01;7.50;;;4.03;;
27666;SDS011;15074;50.940;5.282;2023-10-08T07:31:33;5.95;;;3.70;;
27666;SDS011;15074;50.940;5.282;2023-10-08T07:33:59;5.05;;;3.33;;
27666;SDS011;15074;50.940;5.282;2023-10-08T07:36:41;5.63;;;3.33;;
27666;SDS011;15074;50.940;5.282;2023-10-08T07:39:08;5.18;;;3.63;;
27666;SDS011;15074;50.940;5.282;2023-10-08T07:41:47;5.63;;;2.88;;
27666;SDS011;15074;50.940;5.282;2023-10-08T07:44:14;4.43;;;3.10;;
27666;SDS011;15074;50.940;5.282;2023-10-08T07:46:40;4.82;;;3.80;;
27666;SDS011;15074;50.940;5.282;2023-10-08T07:49:06;6.40;;;3.15;;
27666;SDS011;15074;50.940;5.282;2023-10-08T07:51:31;11.85;;;3.38;;
27666;SDS011;15074;50.940;5.282;2023-10-08T07:53:58;9.95;;;3.50;;
27666;SDS011;15074;50.940;5.282;2023-10-08T07:56:24;4.22;;;3.17;;
27666;SDS011;15074;50.940;5.282;2023-10-08T07:58:52;6.93;;;3.67;;
27666;SDS011;15074;50.940;5.282;2023-10-08T08:01:23;4.15;;;3.03;;
27666;SDS011;15074;50.940;5.282;2023-10-08T08:03:50;6.15;;;3.33;;
27666;SDS011;15074;50.940;5.282;2023-10-08T08:06:16;5.82;;;3.35;;
27666;SDS011;15074;50.940;5.282;2023-10-08T08:08:42;6.60;;;2.97;;
27666;SDS011;15074;50.940;5.282;2023-10-08T08:11:09;9.88;;;3.45;;
27666;SDS011;15074;50.940;5.282;2023-10-08T08:13:42;8.75;;;3.30;;
27666;SDS011;15074;50.940;5.282;2023-10-08T08:16:12;5.40;;;3.45;;
27666;SDS011;15074;50.940;5.282;2023-10-08T08:18:46;5.10;;;3.17;;
27666;SDS011;15074;50.940;5.282;2023-10-08T08:21:13;13.70;;;3.40;;
27666;SDS011;15074;50.940;5.282;2023-10-08T08:23:44;6.30;;;3.33;;
27666;SDS011;15074;50.940;5.282;2023-10-08T08:26:16;4.63;;;3.53;;
27666;SDS011;15074;50.940;5.282;2023-10-08T08:28:57;4.38;;;3.33;;
27666;SDS011;15074;50.940;5.282;2023-10-08T08:33:51;7.10;;;3.75;;
27666;SDS011;15074;50.940;5.282;2023-10-08T08:36:25;5.30;;;3.60;;
27666;SDS011;15074;50.940;5.282;2023-10-08T08:38:52;6.15;;;3.25;;
27666;SDS011;15074;50.940;5.282;2023-10-08T08:41:19;4.97;;;3.22;;
27666;SDS011;15074;50.940;5.282;2023-10-08T08:43:52;6.07;;;3.92;;
27666;SDS011;15074;50.940;5.282;2023-10-08T08:46:33;4.70;;;3.17;;
27666;SDS011;15074;50.940;5.282;2023-10-08T08:49:08;5.05;;;3.70;;
27666;SDS011;15074;50.940;5.282;2023-10-08T08:51:35;6.10;;;3.13;;
27666;SDS011;15074;50.940;5.282;2023-10-08T08:54:01;7.30;;;3.83;;
27666;SDS011;15074;50.940;5.282;2023-10-08T08:56:32;5.13;;;3.85;;
27666;SDS011;15074;50.940;5.282;2023-10-08T08:59:04;5.30;;;3.78;;
27666;SDS011;15074;50.940;5.282;2023-10-08T09:01:30;6.15;;;4.63;;
27666;SDS011;15074;50.940;5.282;2023-10-08T09:04:01;6.13;;;4.57;;
27666;SDS011;15074;50.940;5.282;2023-10-08T09:06:30;6.90;;;4.10;;
27666;SDS011;15074;50.940;5.282;2023-10-08T09:08:59;5.57;;;4.47;;
27666;SDS011;15074;50.940;5.282;2023-10-08T09:11:40;8.35;;;4.30;;
27666;SDS011;15074;50.940;5.282;2023-10-08T09:14:09;8.98;;;4.60;;
27666;SDS011;15074;50.940;5.282;2023-10-08T09:16:35;5.37;;;3.97;;
27666;SDS011;15074;50.940;5.282;2023-10-08T09:19:02;8.55;;;3.92;;
27666;SDS011;15074;50.940;5.282;2023-10-08T09:23:55;9.05;;;4.63;;
27666;SDS011;15074;50.940;5.282;2023-10-08T09:26:24;7.30;;;4.38;;
27666;SDS011;15074;50.940;5.282;2023-10-08T09:28:54;4.80;;;3.63;;
27666;SDS011;15074;50.940;5.282;2023-10-08T09:31:22;6.25;;;4.50;;
27666;SDS011;15074;50.940;5.282;2023-10-08T09:33:55;4.93;;;4.07;;
27666;SDS011;15074;50.940;5.282;2023-10-08T09:36:22;14.07;;;5.10;;
27666;SDS011;15074;50.940;5.282;2023-10-08T09:38:58;5.00;;;4.18;;
27666;SDS011;15074;50.940;5.282;2023-10-08T09:41:30;7.88;;;4.60;;
27666;SDS011;15074;50.940;5.282;2023-10-08T09:43:58;6.15;;;4.60;;
27666;SDS011;15074;50.940;5.282;2023-10-08T09:46:31;7.25;;;5.20;;
27666;SDS011;15074;50.940;5.282;2023-10-08T09:49:00;6.55;;;5.20;;
27666;SDS011;15074;50.940;5.282;2023-10-08T09:51:28;6.85;;;5.38;;
27666;SDS011;15074;50.940;5.282;2023-10-08T09:56:40;6.60;;;5.05;;
27666;SDS011;15074;50.940;5.282;2023-10-08T09:59:09;6.25;;;4.22;;
27666;SDS011;15074;50.940;5.282;2023-10-08T10:01:36;5.87;;;4.17;;
27666;SDS011;15074;50.940;5.282;2023-10-08T10:04:10;5.25;;;4.13;;
27666;SDS011;15074;50.940;5.282;2023-10-08T10:06:37;6.13;;;4.35;;
27666;SDS011;15074;50.940;5.282;2023-10-08T10:09:04;6.32;;;4.55;;
27666;SDS011;15074;50.940;5.282;2023-10-08T10:11:40;4.95;;;4.20;;
27666;SDS011;15074;50.940;5.282;2023-10-08T10:14:12;8.27;;;5.18;;
27666;SDS011;15074;50.940;5.282;2023-10-08T10:16:38;6.93;;;4.75;;
27666;SDS011;15074;50.940;5.282;2023-10-08T10:19:06;13.18;;;7.97;;
27666;SDS011;15074;50.940;5.282;2023-10-08T10:21:42;6.35;;;5.35;;
27666;SDS011;15074;50.940;5.282;2023-10-08T10:24:21;6.43;;;4.68;;
27666;SDS011;15074;50.940;5.282;2023-10-08T10:26:52;5.10;;;4.55;;
27666;SDS011;15074;50.940;5.282;2023-10-08T10:29:42;7.85;;;5.00;;
27666;SDS011;15074;50.940;5.282;2023-10-08T10:32:12;6.47;;;4.35;;
27666;SDS011;15074;50.940;5.282;2023-10-08T10:34:44;6.90;;;4.70;;
27666;SDS011;15074;50.940;5.282;2023-10-08T10:37:12;8.68;;;4.88;;
27666;SDS011;15074;50.940;5.282;2023-10-08T10:39:50;7.57;;;4.75;;
27666;SDS011;15074;50.940;5.282;2023-10-08T10:42:19;9.63;;;5.80;;
27666;SDS011;15074;50.940;5.282;2023-10-08T10:44:46;10.23;;;5.70;;
27666;SDS011;15074;50.940;5.282;2023-10-08T10:47:16;7.28;;;5.07;;
27666;SDS011;15074;50.940;5.282;2023-10-08T10:49:49;8.27;;;5.03;;
27666;SDS011;15074;50.940;5.282;2023-10-08T10:52:20;8.63;;;5.50;;
27666;SDS011;15074;50.940;5.282;2023-10-08T10:55:19;14.15;;;6.00;;
27666;SDS011;15074;50.940;5.282;2023-10-08T10:57:56;7.78;;;5.68;;
27666;SDS011;15074;50.940;5.282;2023-10-08T11:00:29;8.18;;;5.20;;
27666;SDS011;15074;50.940;5.282;2023-10-08T11:02:57;6.55;;;4.80;;
27666;SDS011;15074;50.940;5.282;2023-10-08T11:05:28;10.13;;;5.70;;
27666;SDS011;15074;50.940;5.282;2023-10-08T11:07:56;5.93;;;5.15;;
27666;SDS011;15074;50.940;5.282;2023-10-08T11:10:30;8.50;;;5.57;;
27666;SDS011;15074;50.940;5.282;2023-10-08T11:12:57;9.15;;;5.00;;
27666;SDS011;15074;50.940;5.282;2023-10-08T11:15:26;11.80;;;6.32;;
27666;SDS011;15074;50.940;5.282;2023-10-08T11:18:13;9.87;;;5.60;;
27666;SDS011;15074;50.940;5.282;2023-10-08T11:23:09;8.60;;;5.70;;
27666;SDS011;15074;50.940;5.282;2023-10-08T11:25:56;10.75;;;5.43;;
27666;SDS011;15074;50.940;5.282;2023-10-08T11:28:27;5.72;;;5.03;;
27666;SDS011;15074;50.940;5.282;2023-10-08T11:30:54;6.88;;;4.75;;
27666;SDS011;15074;50.940;5.282;2023-10-08T11:33:22;9.13;;;5.65;;
27666;SDS011;15074;50.940;5.282;2023-10-08T11:35:54;6.40;;;4.82;;
27666;SDS011;15074;50.940;5.282;2023-10-08T11:38:25;6.03;;;5.07;;
27666;SDS011;15074;50.940;5.282;2023-10-08T11:40:52;6.93;;;4.75;;
27666;SDS011;15074;50.940;5.282;2023-10-08T11:43:24;7.90;;;4.88;;
27666;SDS011;15074;50.940;5.282;2023-10-08T11:45:50;8.80;;;5.32;;
27666;SDS011;15074;50.940;5.282;2023-10-08T11:48:17;8.13;;;4.90;;
27666;SDS011;15074;50.940;5.282;2023-10-08T11:50:50;6.68;;;4.60;;
27666;SDS011;15074;50.940;5.282;2023-10-08T11:53:17;7.93;;;5.05;;
27666;SDS011;15074;50.940;5.282;2023-10-08T11:55:44;8.48;;;5.10;;
27666;SDS011;15074;50.940;5.282;2023-10-08T11:58:13;7.38;;;4.47;;
27666;SDS011;15074;50.940;5.282;2023-10-08T12:00:43;6.85;;;5.10;;
27666;SDS011;15074;50.940;5.282;2023-10-08T12:05:43;7.05;;;4.75;;
27666;SDS011;15074;50.940;5.282;2023-10-08T12:08:15;8.20;;;6.10;;
27666;SDS011;15074;50.940;5.282;2023-10-08T12:10:43;6.35;;;4.40;;
27666;SDS011;15074;50.940;5.282;2023-10-08T12:13:10;8.20;;;4.70;;
27666;SDS011;15074;50.940;5.282;2023-10-08T12:15:36;7.80;;;4.93;;
27666;SDS011;15074;50.940;5.282;2023-10-08T12:18:06;6.18;;;4.30;;
27666;SDS011;15074;50.940;5.282;2023-10-08T12:20:55;5.97;;;4.35;;
27666;SDS011;15074;50.940;5.282;2023-10-08T12:23:20;6.70;;;3.97;;
27666;SDS011;15074;50.940;5.282;2023-10-08T12:25:54;6.95;;;4.25;;
27666;SDS011;15074;50.940;5.282;2023-10-08T12:28:24;7.22;;;4.15;;
27666;SDS011;15074;50.940;5.282;2023-10-08T12:30:50;6.00;;;4.32;;
27666;SDS011;15074;50.940;5.282;2023-10-08T12:33:21;5.63;;;4.75;;
27666;SDS011;15074;50.940;5.282;2023-10-08T12:35:52;5.80;;;4.88;;
27666;SDS011;15074;50.940;5.282;2023-10-08T12:38:24;7.47;;;4.43;;
27666;SDS011;15074;50.940;5.282;2023-10-08T12:40:53;7.00;;;4.38;;
27666;SDS011;15074;50.940;5.282;2023-10-08T12:43:23;6.72;;;4.15;;
27666;SDS011;15074;50.940;5.282;2023-10-08T12:45:52;6.68;;;4.57;;
27666;SDS011;15074;50.940;5.282;2023-10-08T12:48:27;11.80;;;4.60;;
27666;SDS011;15074;50.940;5.282;2023-10-08T12:50:53;8.00;;;3.97;;
27666;SDS011;15074;50.940;5.282;2023-10-08T12:53:23;8.43;;;3.90;;
27666;SDS011;15074;50.940;5.282;2023-10-08T12:55:55;6.30;;;4.03;;
27666;SDS011;15074;50.940;5.282;2023-10-08T12:58:23;6.30;;;4.47;;
27666;SDS011;15074;50.940;5.282;2023-10-08T13:00:55;6.60;;;3.67;;
27666;SDS011;15074;50.940;5.282;2023-10-08T13:03:28;6.32;;;4.35;;
27666;SDS011;15074;50.940;5.282;2023-10-08T13:05:58;9.48;;;4.15;;
27666;SDS011;15074;50.940;5.282;2023-10-08T13:08:30;6.78;;;4.03;;
27666;SDS011;15074;50.940;5.282;2023-10-08T13:10:57;10.25;;;4.38;;
27666;SDS011;15074;50.940;5.282;2023-10-08T13:13:29;9.00;;;4.63;;
27666;SDS011;15074;50.940;5.282;2023-10-08T13:15:55;6.15;;;4.18;;
27666;SDS011;15074;50.940;5.282;2023-10-08T13:18:23;5.43;;;3.88;;
27666;SDS011;15074;50.940;5.282;2023-10-08T13:20:52;6.00;;;3.67;;
27666;SDS011;15074;50.940;5.282;2023-10-08T13:23:18;5.80;;;4.00;;
27666;SDS011;15074;50.940;5.282;2023-10-08T13:25:46;8.02;;;3.83;;
27666;SDS011;15074;50.940;5.282;2023-10-08T13:28:19;8.63;;;4.38;;
27666;SDS011;15074;50.940;5.282;2023-10-08T13:30:46;10.43;;;4.50;;
27666;SDS011;15074;50.940;5.282;2023-10-08T13:33:12;6.97;;;4.22;;
27666;SDS011;15074;50.940;5.282;2023-10-08T13:35:37;9.13;;;3.65;;
27666;SDS011;15074;50.940;5.282;2023-10-08T13:38:03;9.02;;;4.00;;
27666;SDS011;15074;50.940;5.282;2023-10-08T13:40:34;8.30;;;3.70;;
27666;SDS011;15074;50.940;5.282;2023-10-08T13:43:05;8.45;;;3.97;;
27666;SDS011;15074;50.940;5.282;2023-10-08T13:45:31;6.85;;;3.45;;
27666;SDS011;15074;50.940;5.282;2023-10-08T13:48:02;4.97;;;3.70;;
27666;SDS011;15074;50.940;5.282;2023-10-08T13:50:30;5.10;;;3.40;;
27666;SDS011;15074;50.940;5.282;2023-10-08T13:52:56;6.20;;;3.40;;
27666;SDS011;15074;50.940;5.282;2023-10-08T13:55:23;12.63;;;3.92;;
27666;SDS011;15074;50.940;5.282;2023-10-08T13:57:53;7.05;;;3.47;;
27666;SDS011;15074;50.940;5.282;2023-10-08T14:00:19;7.55;;;4.03;;
27666;SDS011;15074;50.940;5.282;2023-10-08T14:02:51;5.10;;;3.53;;
27666;SDS011;15074;50.940;5.282;2023-10-08T14:05:18;7.80;;;4.10;;
27666;SDS011;15074;50.940;5.282;2023-10-08T14:07:49;5.47;;;3.40;;
27666;SDS011;15074;50.940;5.282;2023-10-08T14:10:16;4.45;;;3.45;;
27666;SDS011;15074;50.940;5.282;2023-10-08T14:12:46;8.07;;;4.65;;
27666;SDS011;15074;50.940;5.282;2023-10-08T14:15:15;8.10;;;3.78;;
27666;SDS011;15074;50.940;5.282;2023-10-08T14:17:42;7.25;;;4.03;;
27666;SDS011;15074;50.940;5.282;2023-10-08T14:20:13;7.25;;;3.47;;
27666;SDS011;15074;50.940;5.282;2023-10-08T14:22:40;7.95;;;3.60;;
27666;SDS011;15074;50.940;5.282;2023-10-08T14:25:09;7.90;;;3.72;;
27666;SDS011;15074;50.940;5.282;2023-10-08T14:27:39;10.18;;;4.00;;
27666;SDS011;15074;50.940;5.282;2023-10-08T14:30:08;6.25;;;3.60;;
27666;SDS011;15074;50.940;5.282;2023-10-08T14:32:43;8.90;;;3.78;;
27666;SDS011;15074;50.940;5.282;2023-10-08T14:35:12;6.45;;;3.78;;
27666;SDS011;15074;50.940;5.282;2023-10-08T14:37:56;7.30;;;3.60;;
27666;SDS011;15074;50.940;5.282;2023-10-08T14:40:41;6.95;;;3.42;;
27666;SDS011;15074;50.940;5.282;2023-10-08T14:43:26;7.95;;;3.63;;
27666;SDS011;15074;50.940;5.282;2023-10-08T14:45:56;8.52;;;4.05;;
27666;SDS011;15074;50.940;5.282;2023-10-08T14:48:24;6.25;;;4.35;;
27666;SDS011;15074;50.940;5.282;2023-10-08T14:50:49;8.60;;;3.63;;
27666;SDS011;15074;50.940;5.282;2023-10-08T14:53:16;5.07;;;3.88;;
27666;SDS011;15074;50.940;5.282;2023-10-08T14:55:41;9.32;;;3.53;;
27666;SDS011;15074;50.940;5.282;2023-10-08T14:58:07;6.93;;;3.70;;
27666;SDS011;15074;50.940;5.282;2023-10-08T15:00:34;9.07;;;3.60;;
27666;SDS011;15074;50.940;5.282;2023-10-08T15:03:03;8.35;;;3.45;;
27666;SDS011;15074;50.940;5.282;2023-10-08T15:05:29;7.53;;;3.85;;
27666;SDS011;15074;50.940;5.282;2023-10-08T15:07:57;14.38;;;4.55;;
27666;SDS011;15074;50.940;5.282;2023-10-08T15:10:23;8.13;;;3.17;;
27666;SDS011;15074;50.940;5.282;2023-10-08T15:12:50;6.63;;;4.32;;
27666;SDS011;15074;50.940;5.282;2023-10-08T15:15:17;7.77;;;4.13;;
27666;SDS011;15074;50.940;5.282;2023-10-08T15:17:43;5.85;;;3.90;;
27666;SDS011;15074;50.940;5.282;2023-10-08T15:20:10;5.90;;;3.97;;
27666;SDS011;15074;50.940;5.282;2023-10-08T15:22:42;5.78;;;3.95;;
27666;SDS011;15074;50.940;5.282;2023-10-08T15:25:10;9.07;;;3.88;;
27666;SDS011;15074;50.940;5.282;2023-10-08T15:27:37;7.03;;;4.32;;
27666;SDS011;15074;50.940;5.282;2023-10-08T15:30:08;6.03;;;4.47;;
27666;SDS011;15074;50.940;5.282;2023-10-08T15:32:41;6.95;;;4.75;;
27666;SDS011;15074;50.940;5.282;2023-10-08T15:35:12;11.23;;;4.78;;